地図

経路データ

SID SEASON NUMBER BASIN SUBBASIN NAME ISO_TIME NATURE LAT LON WMO_WIND WMO_PRES WMO_AGENCY TRACK_TYPE DIST2LAND LANDFALL IFLAG USA_AGENCY USA_ATCF_ID USA_LAT USA_LON USA_RECORD USA_STATUS USA_WIND USA_PRES USA_SSHS USA_R34_NE USA_R34_SE USA_R34_SW USA_R34_NW USA_R50_NE USA_R50_SE USA_R50_SW USA_R50_NW USA_R64_NE USA_R64_SE USA_R64_SW USA_R64_NW USA_POCI USA_ROCI USA_RMW USA_EYE TOKYO_LAT TOKYO_LON TOKYO_GRADE TOKYO_WIND TOKYO_PRES TOKYO_R50_DIR TOKYO_R50_LONG TOKYO_R50_SHORT TOKYO_R30_DIR TOKYO_R30_LONG TOKYO_R30_SHORT TOKYO_LAND CMA_LAT CMA_LON CMA_CAT CMA_WIND CMA_PRES HKO_LAT HKO_LON HKO_CAT HKO_WIND HKO_PRES NEWDELHI_LAT NEWDELHI_LON NEWDELHI_GRADE NEWDELHI_WIND NEWDELHI_PRES NEWDELHI_CI NEWDELHI_DP NEWDELHI_POCI REUNION_LAT REUNION_LON REUNION_TYPE REUNION_WIND REUNION_PRES REUNION_TNUM REUNION_CI REUNION_RMW REUNION_R34_NE REUNION_R34_SE REUNION_R34_SW REUNION_R34_NW REUNION_R50_NE REUNION_R50_SE REUNION_R50_SW REUNION_R50_NW REUNION_R64_NE REUNION_R64_SE REUNION_R64_SW REUNION_R64_NW BOM_LAT BOM_LON BOM_TYPE BOM_WIND BOM_PRES BOM_TNUM BOM_CI BOM_RMW BOM_R34_NE BOM_R34_SE BOM_R34_SW BOM_R34_NW BOM_R50_NE BOM_R50_SE BOM_R50_SW BOM_R50_NW BOM_R64_NE BOM_R64_SE BOM_R64_SW BOM_R64_NW BOM_ROCI BOM_POCI BOM_EYE BOM_POS_METHOD BOM_PRES_METHOD NADI_LAT NADI_LON NADI_CAT NADI_WIND NADI_PRES WELLINGTON_LAT WELLINGTON_LON WELLINGTON_WIND WELLINGTON_PRES DS824_LAT DS824_LON DS824_STAGE DS824_WIND DS824_PRES TD9636_LAT TD9636_LON TD9636_STAGE TD9636_WIND TD9636_PRES TD9635_LAT TD9635_LON TD9635_WIND TD9635_PRES TD9635_ROCI NEUMANN_LAT NEUMANN_LON NEUMANN_CLASS NEUMANN_WIND NEUMANN_PRES MLC_LAT MLC_LON MLC_CLASS MLC_WIND MLC_PRES USA_GUST BOM_GUST BOM_GUST_PER REUNION_GUST REUNION_GUST_PER USA_SEAHGT USA_SEARAD_NE USA_SEARAD_SE USA_SEARAD_SW USA_SEARAD_NW STORM_SPEED STORM_DIR
2021234N13345 2021 62 NA NA KATE 2021-08-22 00:00:00 NR 12.6000 -14.8000 PROVISIONAL 0 0 O_____________ nhc_working_bt AL102021 12.6000 -14.8000 DB 15 -3 17 204
2021234N13345 2021 62 NA NA KATE 2021-08-22 03:00:00 NR 11.8201 -15.1555 PROVISIONAL 0 0 P_____________ AL102021 11.8201 -15.1555 DB 15 -3 17 205
2021234N13345 2021 62 NA NA KATE 2021-08-22 06:00:00 NR 11.1000 -15.5000 PROVISIONAL 15 15 O_____________ nhc_working_bt AL102021 11.1000 -15.5000 DB 15 -3 15 206
2021234N13345 2021 62 NA NA KATE 2021-08-22 09:00:00 NR 10.4774 -15.8347 PROVISIONAL 86 86 P_____________ AL102021 10.4774 -15.8347 DB 17 -3 14 210
2021234N13345 2021 62 NA NA KATE 2021-08-22 12:00:00 NR 9.90000 -16.2000 PROVISIONAL 164 164 O_____________ nhc_working_bt AL102021 9.90000 -16.2000 DB 20 -3 14 213
2021234N13345 2021 62 NA NA KATE 2021-08-22 15:00:00 NR 9.26995 -16.6200 PROVISIONAL 243 243 P_____________ AL102021 9.26995 -16.6200 DB 20 -3 15 217
2021234N13345 2021 62 NA NA KATE 2021-08-22 18:00:00 NR 8.70000 -17.1000 PROVISIONAL 329 329 O_____________ nhc_working_bt AL102021 8.70000 -17.1000 DB 20 -3 14 224
2021234N13345 2021 62 NA NA KATE 2021-08-22 21:00:00 NR 8.24743 -17.6199 PROVISIONAL 407 407 P_____________ AL102021 8.24743 -17.6199 DB 20 -3 14 234
2021234N13345 2021 62 NA NA KATE 2021-08-23 00:00:00 NR 7.90000 -18.2000 PROVISIONAL 478 478 O_____________ nhc_working_bt AL102021 7.90000 -18.2000 DB 20 -3 14 241
2021234N13345 2021 62 NA NA KATE 2021-08-23 03:00:00 NR 7.58997 -18.8350 PROVISIONAL 548 548 P_____________ AL102021 7.58997 -18.8350 DB 20 -3 14 249
2021234N13345 2021 62 NA NA KATE 2021-08-23 06:00:00 DS 7.40000 -19.5000 PROVISIONAL 616 616 O_____________ nhc_working_bt AL102021 7.40000 -19.5000 LO 20 -3 13 260
2021234N13345 2021 62 NA NA KATE 2021-08-23 09:00:00 DS 7.36241 -20.1498 PROVISIONAL 659 659 P_____________ AL102021 7.36241 -20.1498 LO 22 -3 13 270
2021234N13345 2021 62 NA NA KATE 2021-08-23 12:00:00 DS 7.40000 -20.8000 PROVISIONAL 711 711 O_____________ nhc_working_bt AL102021 7.40000 -20.8000 LO 25 1009 -3 1012 120 60 13 271
2021234N13345 2021 62 NA NA KATE 2021-08-23 15:00:00 DS 7.37737 -21.4426 PROVISIONAL 753 753 P_____________ AL102021 7.37737 -21.4426 LO 25 1009 -3 1012 120 60 13 270
2021234N13345 2021 62 NA NA KATE 2021-08-23 18:00:00 DS 7.40000 -22.1000 PROVISIONAL 806 806 O_____________ nhc_working_bt AL102021 7.40000 -22.1000 LO 25 1009 -3 1012 120 60 13 275
2021234N13345 2021 62 NA NA KATE 2021-08-23 21:00:00 DS 7.49735 -22.7776 PROVISIONAL 856 856 P_____________ AL102021 7.49735 -22.7776 LO 25 1009 -3 1011 120 60 14 282
2021234N13345 2021 62 NA NA KATE 2021-08-24 00:00:00 NR 7.70000 -23.5000 PROVISIONAL 903 903 O_____________ nhc_working_bt AL102021 7.70000 -23.5000 DB 25 1009 -3 1011 120 60 16 290
2021234N13345 2021 62 NA NA KATE 2021-08-24 03:00:00 NR 8.02743 -24.2849 PROVISIONAL 957 957 P_____________ AL102021 8.02743 -24.2849 DB 25 1009 -3 1011 120 60 17 294
2021234N13345 2021 62 NA NA KATE 2021-08-24 06:00:00 NR 8.40000 -25.1000 PROVISIONAL 1012 1012 O_____________ nhc_working_bt AL102021 8.40000 -25.1000 DB 25 1009 -3 1011 120 60 17 294
2021234N13345 2021 62 NA NA KATE 2021-08-24 09:00:00 NR 8.72233 -25.9001 PROVISIONAL 1078 1078 P_____________ AL102021 8.72233 -25.9001 DB 25 1008 -3 1010 150 60 17 291
2021234N13345 2021 62 NA NA KATE 2021-08-24 12:00:00 NR 9.00000 -26.7000 PROVISIONAL 1147 1147 O_____________ nhc_working_bt AL102021 9.00000 -26.7000 DB 25 1008 -3 1010 180 60 16 287
2021234N13345 2021 62 NA NA KATE 2021-08-24 15:00:00 NR 9.20716 -27.4778 PROVISIONAL 1223 1223 P_____________ AL102021 9.20716 -27.4778 DB 25 1008 -3 1010 180 60 16 284
2021234N13345 2021 62 NA NA KATE 2021-08-24 18:00:00 NR 9.40000 -28.3000 PROVISIONAL 1300 1300 O_____________ nhc_working_bt AL102021 9.40000 -28.3000 DB 25 1008 -3 1010 180 60 18 284
2021234N13345 2021 62 NA NA KATE 2021-08-24 21:00:00 NR 9.64997 -29.2350 PROVISIONAL 1390 1390 P_____________ AL102021 9.64997 -29.2350 DB 25 1008 -3 1010 180 60 19 285
2021234N13345 2021 62 NA NA KATE 2021-08-25 00:00:00 NR 9.90000 -30.2000 PROVISIONAL 1481 1481 O_____________ nhc_working_bt AL102021 9.90000 -30.2000 DB 25 1008 -3 1010 180 60 19 284
2021234N13345 2021 62 NA NA KATE 2021-08-25 03:00:00 NR 10.0997 -31.1077 PROVISIONAL 1564 1564 P_____________ AL102021 10.0997 -31.1077 DB 25 1008 -3 1010 180 70 18 283
2021234N13345 2021 62 NA NA KATE 2021-08-25 06:00:00 NR 10.3000 -32.0000 PROVISIONAL 1649 1649 O_____________ nhc_working_bt AL102021 10.3000 -32.0000 DB 25 1008 -3 1010 180 80 18 284
2021234N13345 2021 62 NA NA KATE 2021-08-25 09:00:00 NR 10.5349 -32.9226 PROVISIONAL 1684 1671 P_____________ AL102021 10.5349 -32.9226 DB 25 1008 -3 1010 180 80 18 286
2021234N13345 2021 62 NA NA KATE 2021-08-25 12:00:00 NR 10.8000 -33.8000 PROVISIONAL 1672 1666 O_____________ nhc_working_bt AL102021 10.8000 -33.8000 DB 25 1008 -3 1010 180 80 17 290
2021234N13345 2021 62 NA NA KATE 2021-08-25 15:00:00 NR 11.1222 -34.5799 PROVISIONAL 1671 1670 P_____________ AL102021 11.1222 -34.5799 DB 25 1008 -3 1010 180 80 16 292
2021234N13345 2021 62 NA NA KATE 2021-08-25 18:00:00 NR 11.4000 -35.3000 PROVISIONAL 1677 1670 O_____________ nhc_working_bt AL102021 11.4000 -35.3000 DB 25 1008 -3 1010 180 80 14 286
2021234N13345 2021 62 NA NA KATE 2021-08-25 21:00:00 NR 11.5070 -35.9706 PROVISIONAL 1667 1656 P_____________ AL102021 11.5070 -35.9706 DB 25 1008 -3 1010 165 80 14 278
2021234N13345 2021 62 NA NA KATE 2021-08-26 00:00:00 NR 11.6000 -36.7000 PROVISIONAL 1660 1656 O_____________ nhc_working_bt AL102021 11.6000 -36.7000 DB 25 1008 -3 1010 150 80 17 282
2021234N13345 2021 62 NA NA KATE 2021-08-26 03:00:00 NR 11.8501 -37.6197 PROVISIONAL 1676 1657 P_____________ AL102021 11.8501 -37.6197 DB 25 1008 -3 1010 150 80 19 285
2021234N13345 2021 62 NA NA KATE 2021-08-26 06:00:00 NR 12.1000 -38.6000 PROVISIONAL 1648 1580 O_____________ nhc_working_bt AL102021 12.1000 -38.6000 DB 25 1008 -3 1010 150 80 19 282
2021234N13345 2021 62 NA NA KATE 2021-08-26 09:00:00 NR 12.2370 -39.4927 PROVISIONAL 1571 1506 P_____________ AL102021 12.2370 -39.4927 DB 25 1008 -3 1010 150 80 18 276
2021234N13345 2021 62 NA NA KATE 2021-08-26 12:00:00 NR 12.3000 -40.4000 PROVISIONAL 1497 1419 O_____________ nhc_working_bt AL102021 12.3000 -40.4000 DB 25 1008 -3 1010 150 80 18 272
2021234N13345 2021 62 NA NA KATE 2021-08-26 15:00:00 NR 12.2922 -41.3780 PROVISIONAL 1410 1335 P_____________ AL102021 12.2922 -41.3780 DB 25 1008 -3 1010 150 80 20 270
2021234N13345 2021 62 NA NA KATE 2021-08-26 18:00:00 NR 12.3000 -42.4000 PROVISIONAL 1327 1256 O_____________ nhc_working_bt AL102021 12.3000 -42.4000 DB 25 1008 -3 1010 150 80 21 274
2021234N13345 2021 62 NA NA KATE 2021-08-26 21:00:00 NR 12.4275 -43.4723 PROVISIONAL 1248 1200 P_____________ AL102021 12.4275 -43.4723 DB 25 1008 -3 1010 150 80 21 278
2021234N13345 2021 62 NA NA KATE 2021-08-27 00:00:00 NR 12.6000 -44.5000 PROVISIONAL 1193 1142 O_____________ nhc_working_bt AL102021 12.6000 -44.5000 DB 25 1008 -3 1010 150 80 19 280
2021234N13345 2021 62 NA NA KATE 2021-08-27 03:00:00 NR 12.7573 -45.4249 PROVISIONAL 1152 1112 P_____________ AL102021 12.7573 -45.4249 DB 25 1008 -3 1010 150 80 17 280
2021234N13345 2021 62 NA NA KATE 2021-08-27 06:00:00 NR 12.9000 -46.2000 PROVISIONAL 1112 1081 O_____________ nhc_working_bt AL102021 12.9000 -46.2000 DB 25 1008 -3 1011 150 80 14 281
2021234N13345 2021 62 NA NA KATE 2021-08-27 09:00:00 NR 13.0070 -46.7951 PROVISIONAL 1081 1059 P_____________ AL102021 13.0070 -46.7951 DB 25 1008 -3 1011 150 80 11 281
2021234N13345 2021 62 NA NA KATE 2021-08-27 12:00:00 DS 13.1000 -47.3000 PROVISIONAL 1059 1039 O_____________ nhc_working_bt AL102021 13.1000 -47.3000 LO 25 1008 -3 1011 150 80 10 281
2021234N13345 2021 62 NA NA KATE 2021-08-27 15:00:00 DS 13.1999 -47.8500 PROVISIONAL 1034 1017 P_____________ AL102021 13.1999 -47.8500 LO 25 1008 -3 1011 150 75 11 281
2021234N13345 2021 62 NA NA KATE 2021-08-27 18:00:00 DS 13.3000 -48.4000 PROVISIONAL 1017 998 O_____________ nhc_working_bt AL102021 13.3000 -48.4000 LO 25 1008 -3 1011 150 70 11 280
2021234N13345 2021 62 NA NA KATE 2021-08-27 21:00:00 DS 13.4002 -49.0100 PROVISIONAL 998 985 P_____________ AL102021 13.4002 -49.0100 LO 25 1008 -3 1011 145 65 11 281
2021234N13345 2021 62 NA NA KATE 2021-08-28 00:00:00 DS 13.5000 -49.5000 PROVISIONAL 987 979 O_____________ nhc_working_bt AL102021 13.5000 -49.5000 LO 25 1008 -3 1011 140 60 35 7 283
2021234N13345 2021 62 NA NA KATE 2021-08-28 03:00:00 DS 13.5548 -49.7176 PROVISIONAL 989 986 P_____________ AL102021 13.5548 -49.7176 LO 27 1007 -3 1011 140 55 4 304
2021234N13345 2021 62 NA NA KATE 2021-08-28 06:00:00 TS 13.7000 -49.8000 PROVISIONAL 996 996 O_____________ nhc_working_bt AL102021 13.7000 -49.8000 TD 30 1007 -1 1011 140 50 40 6 339
2021234N13345 2021 62 NA NA KATE 2021-08-28 09:00:00 TS 14.0808 -49.9207 PROVISIONAL 1032 1032 P_____________ AL102021 14.0625 -49.9224 TD 30 1007 -1 1011 140 50 8 346
2021234N13345 2021 62 NA NA KATE 2021-08-28 12:00:00 TS 14.5000 -50.0000 PROVISIONAL 1067 1067 O_____________ nhc_working_bt AL102021 14.5000 -50.0000 TD 30 1007 -1 1011 140 50 40 8 353
2021234N13345 2021 62 NA NA KATE 2021-08-28 15:00:00 TS 14.8350 -50.0225 PROVISIONAL 1097 1097 P_____________ AL102021 14.8350 -50.0225 TD 30 1007 -1 1011 140 50 7 0
2021234N13345 2021 62 NA NA KATE 2021-08-28 18:00:00 TS 15.2000 -50.0000 PROVISIONAL 1138 1138 O_____________ nhc_working_bt AL102021 15.2000 -50.0000 TD 30 1007 -1 1011 140 50 40 9 5
2021234N13345 2021 62 NA NA KATE 2021-08-28 21:00:00 TS 15.6888 -49.9501 PROVISIONAL 1189 1189 P_____________ AL102021 15.6700 -49.9426 TD 30 1007 -1 1011 140 50 10 6
2021234N13345 2021 62 NA NA KATE 2021-08-29 00:00:00 TS 16.2000 -49.9000 PROVISIONAL 1245 1245 O_____________ nhc_working_bt AL102021 16.2000 -49.9000 TD 30 1007 -1 1011 140 50 40 9 3
2021234N13345 2021 62 NA NA KATE 2021-08-29 03:00:00 TS 16.6136 -49.8958 PROVISIONAL 1286 1286 P_____________ AL102021 16.7425 -49.9275 TD 30 1007 -1 1011 135 40 9 356
2021234N13345 2021 62 NA NA KATE 2021-08-29 06:00:00 TS 17.0756 -49.9536 PROVISIONAL 1334 1334 O_____________ nhc_working_bt AL102021 17.3000 -50.0000 TD 30 1007 -1 1011 130 30 40 11 350
2021234N13345 2021 62 NA NA KATE 2021-08-29 09:00:00 TS 17.6871 -50.0948 PROVISIONAL 1394 1394 P_____________ AL102021 17.8725 -50.0999 TD 30 1007 -1 1012 130 30 13 348
2021234N13345 2021 62 NA NA KATE 2021-08-29 12:00:00 TS 18.2902 -50.2284 PROVISIONAL 1440 1440 O_____________ nhc_working_bt AL102021 18.4000 -50.2000 TD 30 1008 -1 1013 130 30 40 11 351
2021234N13345 2021 62 NA NA KATE 2021-08-29 15:00:00 TS 18.7642 -50.2750 PROVISIONAL 1464 1464 P_____________ AL102021 18.8375 -50.2501 TD 30 1008 -1 1013 130 30 9 356
2021234N13345 2021 62 NA NA KATE 2021-08-29 18:00:00 TS 19.1714 -50.3063 PROVISIONAL 1491 1490 O_____________ nhc_working_bt AL102021 19.2000 -50.3000 TD 30 1008 -1 1013 130 30 40 8 349
2021234N13345 2021 62 NA NA KATE 2021-08-29 21:00:00 TS 19.5061 -50.4260 PROVISIONAL 1504 1503 P_____________ AL102021 19.5075 -50.4000 TD 30 1008 -1 1013 125 30 7 340
2021234N13345 2021 62 NA NA KATE 2021-08-30 00:00:00 TS 19.8000 -50.5556 PROVISIONAL 1509 1509 O_____________ nhc_working_bt AL102021 19.8000 -50.5000 TD 30 1008 -1 1013 120 30 40 6 347
2021234N13345 2021 62 NA NA KATE 2021-08-30 03:00:00 TS 20.1350 -50.5827 PROVISIONAL 1532 1532 P_____________ AL102021 20.1350 -50.5501 TD 32 1007 -1 1013 120 30 7 357
2021234N13345 2021 62 NA NA KATE 2021-08-30 06:00:00 TS 20.5000 -50.6000 PROVISIONAL 1562 1562 O_____________ nhc_working_bt AL102021 20.5000 -50.6000 TS 35 1006 0 40 40 1013 120 30 40 7 352
2021234N13345 2021 62 NA NA KATE 2021-08-30 09:00:00 TS 20.8563 -50.6962 PROVISIONAL 1584 1575 P_____________ AL102021 20.8925 -50.6999 TS 37 1005 0 45 45 1012 120 27 8 346
2021234N13345 2021 62 NA NA KATE 2021-08-30 12:00:00 TS 21.2500 -50.8000 PROVISIONAL 1580 1576 O_____________ nhc_working_bt AL102021 21.3000 -50.8000 TS 40 1004 0 50 50 1012 120 25 50 9 350
2021234N13345 2021 62 NA NA KATE 2021-08-30 15:00:00 TS 21.7512 -50.8650 PROVISIONAL 1580 1580 P_____________ AL102021 21.7225 -50.8650 TS 37 1005 0 45 45 1012 120 25 10 354
2021234N13345 2021 62 NA NA KATE 2021-08-30 18:00:00 TS 22.2000 -50.9000 PROVISIONAL 1589 1589 O_____________ nhc_working_bt AL102021 22.1000 -50.9000 TS 35 1006 0 40 40 1012 120 25 45 7 356
2021234N13345 2021 62 NA NA KATE 2021-08-30 21:00:00 TS 22.4562 -50.9076 PROVISIONAL 1597 1597 P_____________ AL102021 22.3950 -50.9076 TS 35 1006 0 40 40 1012 120 25 4 0
2021234N13345 2021 62 NA NA KATE 2021-08-31 00:00:00 TS 22.6000 -50.9000 PROVISIONAL 1600 1600 O_____________ nhc_working_bt AL102021 22.6000 -50.9000 TS 35 1006 0 40 40 1012 120 25 45 12 30 2 2
2021234N13345 2021 62 NA NA KATE 2021-08-31 03:00:00 TS 22.7000 -50.9075 PROVISIONAL 1603 1603 P_____________ AL102021 22.7075 -50.9000 TS 35 1006 0 40 40 1012 120 27 2 8
2021234N13345 2021 62 NA NA KATE 2021-08-31 06:00:00 TS 22.8000 -50.9000 PROVISIONAL 1606 1606 O_____________ nhc_working_bt AL102021 22.8000 -50.9000 TS 35 1006 0 40 40 1012 120 30 45 3 14
2021234N13345 2021 62 NA NA KATE 2021-08-31 09:00:00 TS 22.9550 -50.8463 PROVISIONAL 1621 1621 P_____________ AL102021 22.9625 -50.9000 TS 32 1006 -1 1012 120 35 4 12
2021234N13345 2021 62 NA NA KATE 2021-08-31 12:00:00 TS 23.2000 -50.8000 PROVISIONAL 1628 1628 O_____________ nhc_working_bt AL102021 23.2000 -50.9000 TD 30 1007 -1 1012 120 40 40 6 4
2021234N13345 2021 62 NA NA KATE 2021-08-31 15:00:00 TS 23.5700 -50.7951 PROVISIONAL 1641 1641 P_____________ AL102021 23.5275 -50.8777 TD 30 1007 -1 1012 120 40 8 357
2021234N13345 2021 62 NA NA KATE 2021-08-31 18:00:00 TS 24.0000 -50.8500 PROVISIONAL 1655 1645 O_____________ nhc_working_bt AL102021 23.9000 -50.9000 TD 30 1007 -1 1012 120 40 40 9 349
2021234N13345 2021 62 NA NA KATE 2021-08-31 21:00:00 TS 24.4225 -50.9774 PROVISIONAL 1651 1650 P_____________ AL102021 24.2500 -51.0274 TD 27 1008 -1 1012 105 40 8 341
2021234N13345 2021 62 NA NA KATE 2021-09-01 00:00:00 TS 24.8000 -51.1500 PROVISIONAL 1659 1649 O_____________ nhc_working_bt AL102021 24.6000 -51.2000 TD 25 1009 -1 1013 90 40 40 7 334
2021234N13345 2021 62 NA NA KATE 2021-09-01 03:00:00 TS 25.0312 -51.3068 PROVISIONAL 1649 1640 P_____________ AL102021 24.9048 -51.3133 TD 27 1008 -1 1013 90 40 6 328
2021234N13345 2021 62 NA NA KATE 2021-09-01 06:00:00 TS 25.3000 -51.5000 PROVISIONAL 1645 1640 O_____________ nhc_working_bt AL102021 25.3000 -51.5000 TD 30 1007 -1 1013 90 40 40 8 330
2021234N13345 2021 62 NA NA KATE 2021-09-01 09:00:00 TS 25.7388 -51.7527 PROVISIONAL 1637 1637 P_____________ AL102021 25.8979 -51.8916 TD 30 1007 -1 1013 90 40 12 335
2021234N13345 2021 62 NA NA KATE 2021-09-01 12:00:00 TS 26.3500 -52.0500 PROVISIONAL 1657 1648 O_____________ nhc_working_bt AL102021 26.6000 -52.3000 TD 30 1007 -1 1013 90 40 40 15 338
2021234N13345 2021 62 NA NA KATE 2021-09-01 15:00:00 TS 27.1289 -52.3687 PROVISIONAL 1664 1664 P_____________ AL102021 27.3047 -52.5529 TD 27 1010 -1 1015 80 40 18 341
2021234N13345 2021 62 NA NA KATE 2021-09-01 18:00:00 TS 28.0000 -52.7000 PROVISIONAL 1697 O_____________ nhc_working_bt AL102021 28.0000 -52.7000 TD 25 1014 -1 1017 70 40 35 18 341

IBTrACS Databaseについて

本データベースは、米国NOAAが公開する1842年以降の世界の熱帯低気圧のベストトラックデータアーカイブInternational Best Track Archive for Climate Stewardship (IBTrACS)を、ウェブで閲覧しやすい形式に変換したものです。

最終更新日:2022-09-23